< < Back
Terminal Aerodrome Forecast


Current Version              Previous Versions:   1  2  3  4  5  6  7  8  9  

Terminal Aerodrome Forecast

046
FTUS44 KMRX 201737
TAFCHA
TAF
KCHA 201737Z 2018/2118 29010G18KT P6SM SCT250
     FM210000 33003KT P6SM FEW250
     FM211400 03004KT P6SM SCT040 SCT250=



Latest METAR

570
SAUS80 KWBC 202100 RRA
MTRCHA
METAR KCHA 202053Z 28007KT 10SM FEW250 14/M03 A3016 RMK AO2 SLP212
T01441033 56013


USA.gov is the U.S. government's official web portal to all federal, state and local government web resources and services.